createdAt,value
2022-11-18T00:00:00.785Z,948.23
2022-11-18T00:01:00.727Z,948.22
2022-11-18T00:02:00.723Z,948.23
2022-11-18T00:03:00.632Z,948.21
2022-11-18T00:04:00.562Z,948.25
2022-11-18T00:05:00.537Z,948.19
2022-11-18T00:06:00.454Z,948.17
2022-11-18T00:07:00.444Z,948.18
2022-11-18T00:08:00.345Z,948.18
2022-11-18T00:09:00.282Z,948.18
2022-11-18T00:10:00.242Z,948.20
2022-11-18T00:11:00.176Z,948.20
2022-11-18T00:12:00.119Z,948.17
2022-11-18T00:13:00.060Z,948.15
2022-11-18T00:13:59.995Z,948.12
2022-11-18T00:14:59.939Z,948.11
2022-11-18T00:15:59.897Z,948.13
2022-11-18T00:16:59.834Z,948.11
2022-11-18T00:17:59.785Z,948.08
2022-11-18T00:18:59.726Z,948.05
2022-11-18T00:19:59.661Z,948.01
2022-11-18T00:20:59.603Z,948.02
2022-11-18T00:21:59.560Z,948.02
2022-11-18T00:22:59.521Z,947.98
2022-11-18T00:23:59.443Z,947.98
2022-11-18T00:24:59.390Z,947.90
2022-11-18T00:25:59.346Z,947.91
2022-11-18T00:26:59.283Z,947.97
2022-11-18T00:27:59.231Z,947.95
2022-11-18T00:28:59.161Z,947.99
2022-11-18T00:29:59.118Z,948.04
2022-11-18T00:30:59.061Z,948.07
2022-11-18T00:31:58.992Z,948.09
2022-11-18T00:32:58.935Z,948.09
2022-11-18T00:33:58.904Z,948.07
2022-11-18T00:34:58.832Z,948.08
2022-11-18T00:35:58.770Z,948.09
2022-11-18T00:36:58.730Z,948.11
2022-11-18T00:37:58.665Z,948.12
2022-11-18T00:38:58.613Z,948.17
2022-11-18T00:39:58.562Z,948.19
2022-11-18T00:40:58.501Z,948.19
2022-11-18T00:41:58.436Z,948.19
2022-11-18T00:42:58.386Z,948.18
2022-11-18T00:43:58.323Z,948.22
2022-11-18T00:44:58.280Z,948.20
2022-11-18T00:45:58.222Z,948.19
2022-11-18T00:46:58.156Z,948.23
2022-11-18T00:47:58.098Z,948.24
2022-11-18T00:48:58.056Z,948.22
2022-11-18T00:49:57.997Z,948.23
2022-11-18T00:50:57.932Z,948.23
2022-11-18T00:51:57.970Z,948.19
2022-11-18T00:52:57.831Z,948.23
2022-11-18T00:53:57.780Z,948.26
2022-11-18T00:54:57.719Z,948.25
2022-11-18T00:55:57.665Z,948.25
2022-11-18T00:56:57.623Z,948.26
2022-11-18T00:57:57.554Z,948.28
2022-11-18T00:58:57.488Z,948.27
2022-11-18T00:59:57.439Z,948.27
2022-11-18T01:00:57.443Z,948.28
2022-11-18T01:01:57.334Z,948.26
2022-11-18T01:02:57.274Z,948.28
2022-11-18T01:03:57.219Z,948.29
2022-11-18T01:04:57.166Z,948.26
2022-11-18T01:05:57.106Z,948.25
2022-11-18T01:06:57.118Z,948.29
2022-11-18T01:07:56.988Z,948.29
2022-11-18T01:08:56.931Z,948.26
2022-11-18T01:09:56.888Z,948.31
2022-11-18T01:10:56.816Z,948.26
2022-11-18T01:11:56.766Z,948.23
2022-11-18T01:12:56.715Z,948.22
2022-11-18T01:13:56.667Z,948.15
2022-11-18T01:14:56.611Z,948.14
2022-11-18T01:15:56.556Z,948.13
2022-11-18T01:16:56.507Z,948.15
2022-11-18T01:17:56.428Z,948.16
2022-11-18T01:18:56.386Z,948.17
2022-11-18T01:19:56.329Z,948.20
2022-11-18T01:20:56.260Z,948.19
2022-11-18T01:21:56.205Z,948.18
2022-11-18T01:22:56.148Z,948.19
2022-11-18T01:23:56.104Z,948.21
2022-11-18T01:24:56.039Z,948.19
2022-11-18T01:25:56.001Z,948.24
2022-11-18T01:26:55.928Z,948.23
2022-11-18T01:27:55.940Z,948.25
2022-11-18T01:28:55.828Z,948.28
2022-11-18T01:29:55.781Z,948.28
2022-11-18T01:30:55.703Z,948.34
2022-11-18T01:32:22.743Z,948.35
2022-11-18T01:32:55.589Z,948.36
2022-11-18T01:33:55.533Z,948.36
2022-11-18T01:34:55.478Z,948.33
2022-11-18T01:35:55.442Z,948.35
2022-11-18T01:36:55.385Z,948.34
2022-11-18T01:37:55.326Z,948.31
2022-11-18T01:38:55.269Z,948.30
2022-11-18T01:39:55.204Z,948.29
2022-11-18T01:40:55.144Z,948.32
2022-11-18T01:41:55.112Z,948.26
2022-11-18T01:42:55.043Z,948.25
2022-11-18T01:43:54.991Z,948.28
2022-11-18T01:44:54.922Z,948.24
2022-11-18T01:45:54.879Z,948.26
2022-11-18T01:46:54.811Z,948.28
2022-11-18T01:47:54.753Z,948.27
2022-11-18T01:48:54.697Z,948.26
2022-11-18T01:49:54.671Z,948.30
2022-11-18T01:50:54.601Z,948.27
2022-11-18T01:51:54.544Z,948.29
2022-11-18T01:52:54.485Z,948.27
2022-11-18T01:53:54.428Z,948.28
2022-11-18T01:54:54.386Z,948.26
2022-11-18T01:55:54.307Z,948.29
2022-11-18T01:56:54.258Z,948.30
2022-11-18T01:57:54.223Z,948.27
2022-11-18T01:58:54.151Z,948.27
2022-11-18T01:59:54.110Z,948.30
2022-11-18T02:00:54.073Z,948.29
2022-11-18T02:01:58.369Z,948.30
2022-11-18T02:02:53.929Z,948.35
2022-11-18T02:03:53.869Z,948.32
2022-11-18T02:04:53.815Z,948.37
2022-11-18T02:05:53.758Z,948.39
2022-11-18T02:06:53.782Z,948.40
2022-11-18T02:08:02.666Z,948.40
2022-11-18T02:08:53.578Z,948.40
2022-11-18T02:09:53.557Z,948.40
2022-11-18T02:10:53.480Z,948.41
2022-11-18T02:11:53.458Z,948.40
2022-11-18T02:12:53.385Z,948.41
2022-11-18T02:13:53.312Z,948.43
2022-11-18T02:14:53.258Z,948.47
2022-11-18T02:15:53.198Z,948.48
2022-11-18T02:16:53.162Z,948.46
2022-11-18T02:17:53.079Z,948.44
2022-11-18T02:18:53.031Z,948.47
2022-11-18T02:19:52.985Z,948.45
2022-11-18T02:20:52.926Z,948.48
2022-11-18T02:21:52.880Z,948.46
2022-11-18T02:22:52.799Z,948.46
2022-11-18T02:23:52.746Z,948.46
2022-11-18T02:24:52.702Z,948.51
2022-11-18T02:25:52.634Z,948.47
2022-11-18T02:26:52.602Z,948.46
2022-11-18T02:27:52.534Z,948.51
2022-11-18T02:28:52.468Z,948.48
2022-11-18T02:29:52.410Z,948.50
2022-11-18T02:30:52.365Z,948.47
2022-11-18T02:31:52.315Z,948.50
2022-11-18T02:32:52.257Z,948.49
2022-11-18T02:33:52.215Z,948.51
2022-11-18T02:34:52.144Z,948.48
2022-11-18T02:35:52.077Z,948.47
2022-11-18T02:36:52.050Z,948.47
2022-11-18T02:37:51.978Z,948.50
2022-11-18T02:38:51.922Z,948.46
2022-11-18T02:39:51.867Z,948.45
2022-11-18T02:40:51.798Z,948.48
2022-11-18T02:41:51.770Z,948.45
2022-11-18T02:42:51.688Z,948.42
2022-11-18T02:43:51.635Z,948.44
2022-11-18T02:44:51.586Z,948.47
2022-11-18T02:45:51.528Z,948.48
2022-11-18T02:46:51.477Z,948.49
2022-11-18T02:47:51.438Z,948.55
2022-11-18T02:48:51.355Z,948.52
2022-11-18T02:49:51.310Z,948.52
2022-11-18T02:50:51.245Z,948.52
2022-11-18T02:51:51.202Z,948.51
2022-11-18T02:52:51.160Z,948.54
2022-11-18T02:53:51.101Z,948.53
2022-11-18T02:54:51.022Z,948.56
2022-11-18T02:55:50.976Z,948.57
2022-11-18T02:56:50.915Z,948.58
2022-11-18T02:57:50.879Z,948.60
2022-11-18T02:58:50.803Z,948.59
2022-11-18T02:59:50.756Z,948.57
2022-11-18T03:00:50.688Z,948.60
2022-11-18T03:01:50.697Z,948.63
2022-11-18T03:02:50.600Z,948.58
2022-11-18T03:03:50.535Z,948.61
2022-11-18T03:04:50.465Z,948.60
2022-11-18T03:05:50.422Z,948.60
2022-11-18T03:06:50.354Z,948.61
2022-11-18T03:07:50.330Z,948.59
2022-11-18T03:08:50.266Z,948.59
2022-11-18T03:09:50.190Z,948.58
2022-11-18T03:10:52.667Z,948.59
2022-11-18T03:11:50.092Z,948.60
2022-11-18T03:12:50.049Z,948.60
2022-11-18T03:13:49.965Z,948.56
2022-11-18T03:14:49.928Z,948.57
2022-11-18T03:15:49.855Z,948.60
2022-11-18T03:16:49.810Z,948.59
2022-11-18T03:17:49.746Z,948.61
2022-11-18T03:18:49.719Z,948.60
2022-11-18T03:19:49.635Z,948.61
2022-11-18T03:20:49.592Z,948.58
2022-11-18T03:21:49.537Z,948.61
2022-11-18T03:22:49.472Z,948.58
2022-11-18T03:23:49.444Z,948.60
2022-11-18T03:24:49.373Z,948.60
2022-11-18T03:25:49.302Z,948.58
2022-11-18T03:26:49.248Z,948.63
2022-11-18T03:27:49.204Z,948.57
2022-11-18T03:28:49.150Z,948.57
2022-11-18T03:29:49.109Z,948.63
2022-11-18T03:30:49.038Z,948.65
2022-11-18T03:31:49.029Z,948.68
2022-11-18T03:32:48.927Z,948.67
2022-11-18T03:33:48.875Z,948.68
2022-11-18T03:34:48.813Z,948.66
2022-11-18T03:35:48.761Z,948.72
2022-11-18T03:36:51.817Z,948.73
2022-11-18T03:37:48.657Z,948.72
2022-11-18T03:38:48.605Z,948.74
2022-11-18T03:39:48.540Z,948.72
2022-11-18T03:40:48.502Z,948.76
2022-11-18T03:41:48.426Z,948.75
2022-11-18T03:42:48.359Z,948.73
2022-11-18T03:43:48.329Z,948.76
2022-11-18T03:44:52.208Z,948.80
2022-11-18T03:45:48.206Z,948.78
2022-11-18T03:46:48.135Z,948.82
2022-11-18T03:47:48.091Z,948.83
2022-11-18T03:48:48.035Z,948.82
2022-11-18T03:49:48.000Z,948.85
2022-11-18T03:50:47.935Z,948.85
2022-11-18T03:51:47.873Z,948.90
2022-11-18T03:52:47.815Z,948.87
2022-11-18T03:53:47.797Z,948.91
2022-11-18T03:54:47.718Z,948.98
2022-11-18T03:55:47.663Z,949.00
2022-11-18T03:56:47.612Z,949.00
2022-11-18T03:57:47.537Z,949.01
2022-11-18T03:58:47.471Z,948.98
2022-11-18T03:59:47.425Z,949.01
2022-11-18T04:00:47.372Z,949.00
2022-11-18T04:01:47.369Z,949.00
2022-11-18T04:02:47.258Z,949.03
2022-11-18T04:03:47.218Z,949.07
2022-11-18T04:04:47.147Z,949.05
2022-11-18T04:05:47.106Z,949.07
2022-11-18T04:06:47.062Z,949.10
2022-11-18T04:07:46.971Z,949.06
2022-11-18T04:08:46.920Z,949.08
2022-11-18T04:09:46.873Z,949.08
2022-11-18T04:10:46.806Z,949.08
2022-11-18T04:11:46.781Z,949.08
2022-11-18T04:12:46.717Z,949.08
2022-11-18T04:13:46.651Z,949.09
2022-11-18T04:14:46.594Z,949.08
2022-11-18T04:15:46.527Z,949.12
2022-11-18T04:16:46.495Z,949.10
2022-11-18T04:17:46.434Z,949.07
2022-11-18T04:18:46.388Z,949.09
2022-11-18T04:19:46.318Z,949.09
2022-11-18T04:20:46.256Z,949.08
2022-11-18T04:21:46.221Z,949.05
2022-11-18T04:22:46.137Z,949.09
2022-11-18T04:23:46.106Z,949.12
2022-11-18T04:24:46.031Z,949.10
2022-11-18T04:25:45.988Z,949.15
2022-11-18T04:26:45.925Z,949.14
2022-11-18T04:27:45.872Z,949.16
2022-11-18T04:28:45.827Z,949.18
2022-11-18T04:29:45.760Z,949.18
2022-11-18T04:30:45.715Z,949.19
2022-11-18T04:31:46.643Z,949.15
2022-11-18T04:32:45.607Z,949.18
2022-11-18T04:33:45.539Z,949.16
2022-11-18T04:34:45.470Z,949.13
2022-11-18T04:35:45.708Z,949.14
2022-11-18T04:36:45.364Z,949.16
2022-11-18T04:37:45.312Z,949.20
2022-11-18T04:38:45.258Z,949.20
2022-11-18T04:39:45.234Z,949.20
2022-11-18T04:40:45.161Z,949.19
2022-11-18T04:41:45.089Z,949.20
2022-11-18T04:42:45.039Z,949.18
2022-11-18T04:43:44.980Z,949.20
2022-11-18T04:44:44.940Z,949.17
2022-11-18T04:45:44.890Z,949.18
2022-11-18T04:46:44.833Z,949.24
2022-11-18T04:47:44.760Z,949.23
2022-11-18T04:48:44.691Z,949.23
2022-11-18T04:49:44.648Z,949.30
2022-11-18T04:50:44.583Z,949.26
2022-11-18T04:51:44.639Z,949.31
2022-11-18T04:52:44.492Z,949.27
2022-11-18T04:53:44.431Z,949.31
2022-11-18T04:54:44.368Z,949.30
2022-11-18T04:55:44.327Z,949.30
2022-11-18T04:56:49.009Z,949.35
2022-11-18T04:57:44.225Z,949.36
2022-11-18T04:58:44.146Z,949.34
2022-11-18T04:59:44.078Z,949.38
2022-11-18T05:00:44.034Z,949.41
2022-11-18T05:01:44.033Z,949.41
2022-11-18T05:02:43.929Z,949.40
2022-11-18T05:03:47.765Z,949.39
2022-11-18T05:04:43.815Z,949.39
2022-11-18T05:05:43.757Z,949.38
2022-11-18T05:06:43.703Z,949.37
2022-11-18T05:07:43.725Z,949.35
2022-11-18T05:08:43.608Z,949.32
2022-11-18T05:09:43.527Z,949.35
2022-11-18T05:10:43.481Z,949.34
2022-11-18T05:11:43.427Z,949.34
2022-11-18T05:12:43.381Z,949.40
2022-11-18T05:13:43.336Z,949.39
2022-11-18T05:14:49.315Z,949.37
2022-11-18T05:15:43.188Z,949.40
2022-11-18T05:16:43.153Z,949.44
2022-11-18T05:17:43.096Z,949.44
2022-11-18T05:18:43.067Z,949.43
2022-11-18T05:19:43.625Z,949.41
2022-11-18T05:20:42.912Z,949.44
2022-11-18T05:21:42.874Z,949.45
2022-11-18T05:22:42.807Z,949.43
2022-11-18T05:23:42.753Z,949.48
2022-11-18T05:24:42.714Z,949.47
2022-11-18T05:25:42.634Z,949.46
2022-11-18T05:26:42.579Z,949.43
2022-11-18T05:27:42.535Z,949.44
2022-11-18T05:28:42.484Z,949.46
2022-11-18T05:29:42.528Z,949.45
2022-11-18T05:30:42.369Z,949.44
2022-11-18T05:31:42.320Z,949.50
2022-11-18T05:32:42.257Z,949.47
2022-11-18T05:33:42.189Z,949.48
2022-11-18T05:34:42.149Z,949.50
2022-11-18T05:35:42.081Z,949.51
2022-11-18T05:36:42.036Z,949.52
2022-11-18T05:37:41.986Z,949.50
2022-11-18T05:38:41.928Z,949.49
2022-11-18T05:39:41.880Z,949.54
2022-11-18T05:40:41.818Z,949.56
2022-11-18T05:41:41.758Z,949.52
2022-11-18T05:42:41.693Z,949.51
2022-11-18T05:43:41.662Z,949.51
2022-11-18T05:44:41.589Z,949.52
2022-11-18T05:45:41.548Z,949.55
2022-11-18T05:46:41.476Z,949.56
2022-11-18T05:47:41.441Z,949.54
2022-11-18T05:48:41.366Z,949.57
2022-11-18T05:49:41.317Z,949.57
2022-11-18T05:50:41.249Z,949.56
2022-11-18T05:51:41.196Z,949.59
2022-11-18T05:52:41.163Z,949.53
2022-11-18T05:53:41.086Z,949.55
2022-11-18T05:54:41.035Z,949.55
2022-11-18T05:55:41.023Z,949.54
2022-11-18T05:56:40.923Z,949.54
2022-11-18T05:57:40.874Z,949.56
2022-11-18T05:58:40.832Z,949.55
2022-11-18T05:59:40.749Z,949.57
2022-11-18T06:00:40.710Z,949.60
2022-11-18T06:01:40.663Z,949.61
2022-11-18T06:02:40.634Z,949.60
2022-11-18T06:03:40.535Z,949.66
2022-11-18T06:04:40.469Z,949.63
2022-11-18T06:05:40.413Z,949.60
2022-11-18T06:06:40.375Z,949.61
2022-11-18T06:07:40.403Z,949.61
2022-11-18T06:08:40.273Z,949.61
2022-11-18T06:09:40.221Z,949.64
2022-11-18T06:10:40.137Z,949.64
2022-11-18T06:11:40.127Z,949.69
2022-11-18T06:12:40.040Z,949.70
2022-11-18T06:13:40.002Z,949.76
2022-11-18T06:14:39.923Z,949.75
2022-11-18T06:15:39.874Z,949.82
2022-11-18T06:16:41.146Z,949.84
2022-11-18T06:17:39.757Z,949.84
2022-11-18T06:18:39.725Z,949.90
2022-11-18T06:19:39.644Z,949.87
2022-11-18T06:20:39.608Z,949.88
2022-11-18T06:21:39.536Z,949.89
2022-11-18T06:22:44.986Z,949.88
2022-11-18T06:23:39.439Z,949.87
2022-11-18T06:24:39.358Z,949.86
2022-11-18T06:25:39.318Z,949.86
2022-11-18T06:26:39.255Z,949.92
2022-11-18T06:27:39.214Z,949.94
2022-11-18T06:28:39.138Z,949.95
2022-11-18T06:29:39.082Z,949.93
2022-11-18T06:30:39.044Z,949.96
2022-11-18T06:31:38.976Z,949.97
2022-11-18T06:32:38.926Z,949.96
2022-11-18T06:33:38.855Z,949.97
2022-11-18T06:34:41.684Z,949.99
2022-11-18T06:35:38.769Z,949.98
2022-11-18T06:36:38.695Z,950.05
2022-11-18T06:37:38.681Z,950.10
2022-11-18T06:38:38.601Z,950.10
2022-11-18T06:39:38.524Z,950.10
2022-11-18T06:40:38.475Z,950.09
2022-11-18T06:41:38.421Z,950.10
2022-11-18T06:42:38.374Z,950.12
2022-11-18T06:43:38.365Z,950.16
2022-11-18T06:44:38.296Z,950.11
2022-11-18T06:45:38.183Z,950.16
2022-11-18T06:46:38.142Z,950.21
2022-11-18T06:47:38.097Z,950.25
2022-11-18T06:48:38.030Z,950.22
2022-11-18T06:49:37.974Z,950.25
2022-11-18T06:50:37.915Z,950.23
2022-11-18T06:51:37.854Z,950.28
2022-11-18T06:52:37.824Z,950.27
2022-11-18T06:53:37.748Z,950.31
2022-11-18T06:54:37.683Z,950.31
2022-11-18T06:55:37.630Z,950.31
2022-11-18T06:56:37.589Z,950.35
2022-11-18T06:57:37.528Z,950.36
2022-11-18T06:58:37.471Z,950.37
2022-11-18T06:59:37.534Z,950.42
2022-11-18T07:00:37.380Z,950.39
2022-11-18T07:01:37.296Z,950.40
2022-11-18T07:02:37.238Z,950.45
2022-11-18T07:03:37.212Z,950.45
2022-11-18T07:04:37.152Z,950.48
2022-11-18T07:05:37.089Z,950.48
2022-11-18T07:06:37.021Z,950.48
2022-11-18T07:07:41.679Z,950.49
2022-11-18T07:08:36.908Z,950.54
2022-11-18T07:09:36.892Z,950.53
2022-11-18T07:10:36.794Z,950.57
2022-11-18T07:11:36.747Z,950.56
2022-11-18T07:12:36.712Z,950.56
2022-11-18T07:13:42.134Z,950.61
2022-11-18T07:14:36.582Z,950.61
2022-11-18T07:15:36.518Z,950.64
2022-11-18T07:16:36.495Z,950.61
2022-11-18T07:17:36.427Z,950.62
2022-11-18T07:18:36.363Z,950.62
2022-11-18T07:19:36.318Z,950.63
2022-11-18T07:20:36.258Z,950.62
2022-11-18T07:21:36.208Z,950.65
2022-11-18T07:22:36.137Z,950.67
2022-11-18T07:23:36.087Z,950.64
2022-11-18T07:24:36.014Z,950.66
2022-11-18T07:25:37.409Z,950.70
2022-11-18T07:26:35.917Z,950.69
2022-11-18T07:27:35.869Z,950.71
2022-11-18T07:28:35.791Z,950.68
2022-11-18T07:29:35.748Z,950.74
2022-11-18T07:30:35.688Z,950.73
2022-11-18T07:31:35.646Z,950.69
2022-11-18T07:32:35.570Z,950.70
2022-11-18T07:33:35.528Z,950.73
2022-11-18T07:34:35.466Z,950.70
2022-11-18T07:35:35.445Z,950.73
2022-11-18T07:36:36.119Z,950.77
2022-11-18T07:37:35.301Z,950.77
2022-11-18T07:38:35.272Z,950.78
2022-11-18T07:39:35.198Z,950.78
2022-11-18T07:40:35.140Z,950.82
2022-11-18T07:41:35.104Z,950.79
2022-11-18T07:42:35.021Z,950.84
2022-11-18T07:43:34.975Z,950.81
2022-11-18T07:44:34.906Z,950.83
2022-11-18T07:45:34.908Z,950.85
2022-11-18T07:46:34.918Z,950.84
2022-11-18T07:47:34.820Z,950.86
2022-11-18T07:55:33.479Z,950.89
2022-11-18T07:56:47.469Z,950.89
2022-11-18T07:57:48.259Z,950.91
2022-11-18T07:58:47.375Z,950.91
2022-11-18T07:59:47.287Z,950.94
2022-11-18T08:00:47.237Z,950.92
2022-11-18T08:01:47.273Z,950.96
2022-11-18T08:02:47.114Z,950.98
2022-11-18T08:03:47.066Z,950.96
2022-11-18T08:04:47.076Z,950.95
2022-11-18T08:05:47.016Z,951.00
2022-11-18T08:06:46.892Z,951.01
2022-11-18T08:07:46.835Z,950.99
2022-11-18T08:08:46.797Z,950.99
2022-11-18T08:09:46.734Z,950.99
2022-11-18T08:10:46.666Z,951.01
2022-11-18T08:11:46.612Z,951.02
2022-11-18T08:12:46.569Z,951.06
2022-11-18T08:13:46.528Z,951.05
2022-11-18T08:14:46.465Z,951.08
2022-11-18T08:15:46.393Z,951.07
2022-11-18T08:16:46.356Z,951.08
2022-11-18T08:17:46.283Z,951.08
2022-11-18T08:18:46.227Z,951.07
2022-11-18T08:19:46.172Z,951.12
2022-11-18T08:20:46.131Z,951.12
2022-11-18T08:21:46.088Z,951.12
2022-11-18T08:22:46.015Z,951.10
2022-11-18T08:23:45.952Z,951.15
2022-11-18T08:24:45.896Z,951.12
2022-11-18T08:25:45.858Z,951.12
2022-11-18T08:26:45.784Z,951.11
2022-11-18T08:27:45.730Z,951.15
2022-11-18T08:28:45.760Z,951.13
2022-11-18T08:29:45.643Z,951.16
2022-11-18T08:30:45.576Z,951.16
2022-11-18T08:31:45.506Z,951.18
2022-11-18T08:32:45.477Z,951.21
2022-11-18T08:33:45.398Z,951.23
2022-11-18T08:34:45.342Z,951.21
2022-11-18T08:35:45.298Z,951.27
2022-11-18T08:36:45.232Z,951.26
2022-11-18T08:37:45.201Z,951.25
2022-11-18T08:38:45.121Z,951.33
2022-11-18T08:39:45.079Z,951.31
2022-11-18T08:40:45.008Z,951.30
2022-11-18T08:41:44.954Z,951.28
2022-11-18T08:42:44.917Z,951.33
2022-11-18T08:43:44.869Z,951.34
2022-11-18T08:44:44.791Z,951.34
2022-11-18T08:45:44.747Z,951.33
2022-11-18T08:46:44.689Z,951.36
2022-11-18T08:47:44.640Z,951.36
2022-11-18T08:48:44.593Z,951.36
2022-11-18T08:49:44.553Z,951.39
2022-11-18T08:50:44.481Z,951.39
2022-11-18T08:51:44.427Z,951.39
2022-11-18T08:52:44.371Z,951.39
2022-11-18T08:53:44.312Z,951.42
2022-11-18T08:54:44.257Z,951.41
2022-11-18T08:55:44.180Z,951.39
2022-11-18T08:56:44.129Z,951.41
2022-11-18T08:57:44.083Z,951.47
2022-11-18T08:58:44.029Z,951.47
2022-11-18T08:59:43.984Z,951.45
2022-11-18T09:00:43.904Z,951.44
2022-11-18T09:01:43.902Z,951.46
2022-11-18T09:02:44.347Z,951.48
2022-11-18T09:03:43.754Z,951.46
2022-11-18T09:04:43.689Z,951.47
2022-11-18T09:05:43.629Z,951.52
2022-11-18T09:06:43.585Z,951.50
2022-11-18T09:07:43.632Z,951.53
2022-11-18T09:08:43.493Z,951.55
2022-11-18T09:09:43.416Z,951.55
2022-11-18T09:10:43.352Z,951.55
2022-11-18T09:11:43.299Z,951.55
2022-11-18T09:12:43.255Z,951.58
2022-11-18T09:14:14.239Z,951.59
2022-11-18T09:15:43.079Z,951.56
2022-11-18T09:16:43.025Z,951.60
2022-11-18T09:17:42.974Z,951.58
2022-11-18T09:18:42.934Z,951.57
2022-11-18T09:19:47.781Z,951.59
2022-11-18T09:20:42.807Z,951.64
2022-11-18T09:21:42.776Z,951.63
2022-11-18T09:22:42.704Z,951.62
2022-11-18T09:23:42.649Z,951.64
2022-11-18T09:24:42.584Z,951.63
2022-11-18T09:25:42.547Z,951.64
2022-11-18T09:26:42.498Z,951.65
2022-11-18T09:27:42.420Z,951.65
2022-11-18T09:28:42.376Z,951.66
2022-11-18T09:29:42.321Z,951.67
2022-11-18T09:30:42.254Z,951.67
2022-11-18T09:31:42.214Z,951.67
2022-11-18T09:32:42.152Z,951.69
2022-11-18T09:33:42.107Z,951.71
2022-11-18T09:34:42.058Z,951.74
2022-11-18T09:35:41.987Z,951.73
2022-11-18T09:36:41.927Z,951.75
2022-11-18T09:37:41.888Z,951.73
2022-11-18T09:38:41.830Z,951.73
2022-11-18T09:39:41.770Z,951.75
2022-11-18T09:40:41.708Z,951.73
2022-11-18T09:41:41.663Z,951.76
2022-11-18T09:42:41.629Z,951.79
2022-11-18T09:43:41.549Z,951.77
2022-11-18T09:44:41.507Z,951.80
2022-11-18T09:45:41.444Z,951.82
2022-11-18T09:46:41.395Z,951.81
2022-11-18T09:47:41.342Z,951.79
2022-11-18T09:48:41.287Z,951.82
2022-11-18T09:49:41.222Z,951.80
2022-11-18T09:50:50.272Z,951.83
2022-11-18T09:51:41.149Z,951.87
2022-11-18T09:52:41.072Z,951.89
2022-11-18T09:53:41.009Z,951.89
2022-11-18T09:54:40.956Z,951.91
2022-11-18T09:55:40.891Z,951.91
2022-11-18T09:56:40.915Z,951.94
2022-11-18T09:57:40.793Z,951.92
2022-11-18T09:58:40.735Z,951.90
2022-11-18T09:59:40.680Z,951.90
2022-11-18T10:00:40.616Z,951.86
2022-11-18T10:01:40.635Z,951.88
2022-11-18T10:02:40.524Z,951.88
2022-11-18T10:03:40.473Z,951.92
2022-11-18T10:04:40.402Z,951.89
2022-11-18T10:05:40.356Z,951.92
2022-11-18T10:06:40.307Z,951.94
2022-11-18T10:07:40.282Z,951.96
2022-11-18T10:08:40.181Z,951.96
2022-11-18T10:09:40.133Z,951.97
2022-11-18T10:10:40.088Z,951.99
2022-11-18T10:11:41.718Z,951.99
2022-11-18T10:12:39.980Z,951.96
2022-11-18T10:13:39.913Z,951.99
2022-11-18T10:14:39.906Z,952.00
2022-11-18T10:15:39.822Z,952.00
2022-11-18T10:16:39.757Z,952.02
2022-11-18T10:17:39.704Z,951.99
2022-11-18T10:19:39.594Z,951.96
2022-11-18T10:20:39.549Z,952.02
2022-11-18T10:21:39.475Z,952.02
2022-11-18T10:22:39.419Z,951.98
2022-11-18T10:23:39.380Z,952.01
2022-11-18T10:24:39.314Z,951.99
2022-11-18T10:25:39.313Z,952.01
2022-11-18T10:26:39.214Z,951.98
2022-11-18T10:27:39.150Z,952.01
2022-11-18T10:28:39.095Z,952.00
2022-11-18T10:29:39.055Z,952.05
2022-11-18T10:30:39.000Z,952.04
2022-11-18T10:31:38.943Z,952.02
2022-11-18T10:32:38.881Z,952.05
2022-11-18T10:33:38.895Z,952.04
2022-11-18T10:34:38.781Z,952.06
2022-11-18T10:35:38.740Z,952.06
2022-11-18T10:36:38.679Z,952.05
2022-11-18T10:38:06.335Z,952.06
2022-11-18T10:38:38.561Z,952.07
2022-11-18T10:39:38.497Z,952.08
2022-11-18T10:40:38.461Z,952.08
2022-11-18T10:41:38.390Z,952.10
2022-11-18T10:42:38.384Z,952.12
2022-11-18T10:43:38.298Z,952.12
2022-11-18T10:44:38.242Z,952.10
2022-11-18T10:45:38.184Z,952.12
2022-11-18T10:46:38.132Z,952.13
2022-11-18T10:47:38.061Z,952.12
2022-11-18T10:48:38.031Z,952.10
2022-11-18T10:49:37.969Z,952.10
2022-11-18T10:50:37.905Z,952.15
2022-11-18T10:51:37.862Z,952.11
2022-11-18T10:52:37.831Z,952.12
2022-11-18T10:53:37.761Z,952.15
2022-11-18T10:54:37.693Z,952.15
2022-11-18T10:55:37.664Z,952.16
2022-11-18T10:56:37.587Z,952.15
2022-11-18T10:57:37.532Z,952.18
2022-11-18T10:58:37.476Z,952.17
2022-11-18T10:59:37.410Z,952.18
2022-11-18T11:00:37.374Z,952.17
2022-11-18T11:01:37.385Z,952.19
2022-11-18T11:02:37.249Z,952.17
2022-11-18T11:03:37.222Z,952.18
2022-11-18T11:04:37.149Z,952.16
2022-11-18T11:05:37.116Z,952.21
2022-11-18T11:06:37.028Z,952.16
2022-11-18T11:07:37.068Z,952.17
2022-11-18T11:08:37.911Z,952.19
2022-11-18T11:09:36.868Z,952.17
2022-11-18T11:10:36.810Z,952.21
2022-11-18T11:11:36.760Z,952.19
2022-11-18T11:12:36.743Z,952.20
2022-11-18T11:13:36.652Z,952.22
2022-11-18T11:14:36.616Z,952.25
2022-11-18T11:15:36.551Z,952.29
2022-11-18T11:16:36.499Z,952.25
2022-11-18T11:17:36.476Z,952.25
2022-11-18T11:18:36.385Z,952.28
2022-11-18T11:19:36.347Z,952.28
2022-11-18T11:20:36.278Z,952.31
2022-11-18T11:21:36.210Z,952.26
2022-11-18T11:22:36.177Z,952.28
2022-11-18T11:23:36.113Z,952.29
2022-11-18T11:24:36.068Z,952.29
2022-11-18T11:28:35.849Z,952.30
2022-11-18T11:29:35.786Z,952.28
2022-11-18T11:30:35.736Z,952.26
2022-11-18T11:31:35.665Z,952.27
2022-11-18T11:32:35.610Z,952.30
2022-11-18T11:33:35.575Z,952.24
2022-11-18T11:34:35.519Z,952.29
2022-11-18T11:35:35.459Z,952.30
2022-11-18T11:36:35.398Z,952.31
2022-11-18T11:37:35.345Z,952.29
2022-11-18T11:38:35.282Z,952.30
2022-11-18T11:39:35.237Z,952.30
2022-11-18T11:40:35.194Z,952.32
2022-11-18T11:41:35.129Z,952.32
2022-11-18T11:42:35.073Z,952.30
2022-11-18T11:43:35.032Z,952.29
2022-11-18T11:44:34.958Z,952.32
2022-11-18T11:45:34.956Z,952.34
2022-11-18T11:46:34.870Z,952.31
2022-11-18T11:47:34.798Z,952.30
2022-11-18T11:48:34.737Z,952.30
2022-11-18T11:49:35.210Z,952.31
2022-11-18T11:50:34.681Z,952.29
2022-11-18T11:51:34.581Z,952.31
2022-11-18T11:52:34.539Z,952.31
2022-11-18T11:53:34.466Z,952.31
2022-11-18T11:54:34.411Z,952.34
2022-11-18T11:55:34.369Z,952.34
2022-11-18T11:56:35.194Z,952.31
2022-11-18T11:57:34.247Z,952.28
2022-11-18T11:58:34.206Z,952.28
2022-11-18T11:59:34.138Z,952.28
2022-11-18T12:00:34.105Z,952.32
2022-11-18T12:01:34.038Z,952.33
2022-11-18T12:02:34.127Z,952.33
2022-11-18T12:03:33.940Z,952.32
2022-11-18T12:04:33.869Z,952.30
2022-11-18T12:05:33.820Z,952.32
2022-11-18T12:06:33.772Z,952.30
2022-11-18T12:07:33.795Z,952.29
2022-11-18T12:08:33.651Z,952.35
2022-11-18T12:09:33.617Z,952.35
2022-11-18T12:10:33.551Z,952.34
2022-11-18T12:11:33.514Z,952.38
2022-11-18T12:12:33.440Z,952.43
2022-11-18T12:13:33.396Z,952.39
2022-11-18T12:14:38.565Z,952.39
2022-11-18T12:15:33.274Z,952.42
2022-11-18T12:16:33.224Z,952.44
2022-11-18T12:17:33.181Z,952.43
2022-11-18T12:18:33.130Z,952.46
2022-11-18T12:19:33.070Z,952.48
2022-11-18T12:20:32.994Z,952.43
2022-11-18T12:21:35.157Z,952.48
2022-11-18T12:22:32.886Z,952.48
2022-11-18T12:23:32.841Z,952.49
2022-11-18T12:24:32.789Z,952.48
2022-11-18T12:25:32.735Z,952.49
2022-11-18T12:26:32.685Z,952.47
2022-11-18T12:27:32.615Z,952.47
2022-11-18T12:28:32.574Z,952.50
2022-11-18T12:29:32.528Z,952.55
2022-11-18T12:30:33.133Z,952.63
2022-11-18T12:31:32.433Z,952.68
2022-11-18T12:32:32.372Z,952.67
2022-11-18T12:33:32.304Z,952.67
2022-11-18T12:34:32.240Z,952.71
2022-11-18T12:35:32.188Z,952.70
2022-11-18T12:36:32.135Z,952.72
2022-11-18T12:37:32.072Z,952.77
2022-11-18T12:38:32.051Z,952.75
2022-11-18T12:39:31.957Z,952.75